createdAt,value
2022-08-24T00:00:23.326Z,17.70
2022-08-24T00:02:50.250Z,17.70
2022-08-24T00:05:17.629Z,17.70
2022-08-24T00:07:44.262Z,17.70
2022-08-24T00:10:11.558Z,17.60
2022-08-24T00:12:38.148Z,17.60
2022-08-24T00:15:06.225Z,17.60
2022-08-24T00:17:34.212Z,17.60
2022-08-24T00:20:00.965Z,17.50
2022-08-24T00:22:28.954Z,17.50
2022-08-24T00:24:56.788Z,17.50
2022-08-24T00:27:23.492Z,17.50
2022-08-24T00:29:50.091Z,17.50
2022-08-24T00:32:16.683Z,17.40
2022-08-24T00:34:45.864Z,17.40
2022-08-24T00:37:26.120Z,17.40
2022-08-24T00:39:52.834Z,17.30
2022-08-24T00:42:19.552Z,17.30
2022-08-24T00:44:46.359Z,17.30
2022-08-24T00:47:19.317Z,17.20
2022-08-24T00:49:49.866Z,17.20
2022-08-24T00:52:19.676Z,17.20
2022-08-24T00:54:48.042Z,17.20
2022-08-24T00:57:16.176Z,17.20
2022-08-24T00:59:44.939Z,17.10
2022-08-24T01:02:17.121Z,17.10
2022-08-24T01:04:49.015Z,17.00
2022-08-24T01:07:16.017Z,17.00
2022-08-24T01:09:42.636Z,17.00
2022-08-24T01:12:09.960Z,17.00
2022-08-24T01:14:37.613Z,17.00
2022-08-24T01:17:23.005Z,16.90
2022-08-24T01:19:51.351Z,16.90
2022-08-24T01:22:39.882Z,16.80
2022-08-24T01:25:07.113Z,16.80
2022-08-24T01:27:34.719Z,16.80
2022-08-24T01:30:02.726Z,16.70
2022-08-24T01:32:30.028Z,16.70
2022-08-24T01:34:57.302Z,16.70
2022-08-24T01:37:24.292Z,16.70
2022-08-24T01:39:52.403Z,16.60
2022-08-24T01:42:19.069Z,16.60
2022-08-24T01:44:46.452Z,16.50
2022-08-24T01:47:14.100Z,16.50
2022-08-24T01:49:42.055Z,16.50
2022-08-24T01:52:09.604Z,16.50
2022-08-24T01:54:36.345Z,16.40
2022-08-24T01:57:03.937Z,16.40
2022-08-24T01:59:30.588Z,16.40
2022-08-24T02:02:01.627Z,16.40
2022-08-24T02:04:28.351Z,16.40
2022-08-24T02:06:54.929Z,16.40
2022-08-24T02:09:21.568Z,16.30
2022-08-24T02:11:48.392Z,16.30
2022-08-24T02:14:15.009Z,16.20
2022-08-24T02:16:41.830Z,16.20
2022-08-24T02:19:08.684Z,16.20
2022-08-24T02:21:35.778Z,16.20
2022-08-24T02:24:02.439Z,16.20
2022-08-24T02:26:31.372Z,16.10
2022-08-24T02:28:59.351Z,16.10
2022-08-24T02:31:30.512Z,16.10
2022-08-24T02:33:57.157Z,16.00
2022-08-24T02:36:26.035Z,16.00
2022-08-24T02:38:54.256Z,16.00
2022-08-24T02:41:21.327Z,16.00
2022-08-24T02:43:48.319Z,15.90
2022-08-24T02:46:22.365Z,15.90
2022-08-24T02:49:10.447Z,15.90
2022-08-24T02:51:42.292Z,15.90
2022-08-24T02:54:13.565Z,15.80
2022-08-24T02:56:40.175Z,15.80
2022-08-24T02:59:06.786Z,15.80
2022-08-24T03:01:33.607Z,15.80
2022-08-24T03:04:00.356Z,15.80
2022-08-24T03:06:26.992Z,15.80
2022-08-24T03:08:56.452Z,15.70
2022-08-24T03:11:27.715Z,15.70
2022-08-24T03:13:55.711Z,15.70
2022-08-24T03:16:22.963Z,15.70
2022-08-24T03:18:49.797Z,15.60
2022-08-24T03:21:16.398Z,15.60
2022-08-24T03:23:43.214Z,15.50
2022-08-24T03:26:11.262Z,15.60
2022-08-24T03:28:38.064Z,15.60
2022-08-24T03:31:05.172Z,15.60
2022-08-24T03:33:31.907Z,15.60
2022-08-24T03:35:58.536Z,15.60
2022-08-24T03:38:25.298Z,15.50
2022-08-24T03:40:52.071Z,15.50
2022-08-24T03:43:37.594Z,15.50
2022-08-24T03:46:06.155Z,15.50
2022-08-24T03:48:32.871Z,15.50
2022-08-24T03:50:59.509Z,15.40
2022-08-24T03:53:26.114Z,15.40
2022-08-24T03:55:52.717Z,15.40
2022-08-24T03:58:19.361Z,15.40
2022-08-24T04:00:46.163Z,15.30
2022-08-24T04:03:13.388Z,15.30
2022-08-24T04:05:40.864Z,15.30
2022-08-24T04:08:07.966Z,15.30
2022-08-24T04:10:35.076Z,15.30
2022-08-24T04:13:01.776Z,15.30
2022-08-24T04:15:29.362Z,15.30
2022-08-24T04:17:55.975Z,15.20
2022-08-24T04:20:24.042Z,15.20
2022-08-24T04:22:51.478Z,15.30
2022-08-24T04:25:24.322Z,15.20
2022-08-24T04:27:51.890Z,15.30
2022-08-24T04:30:18.549Z,15.20
2022-08-24T04:32:45.341Z,15.20
2022-08-24T04:35:12.039Z,15.30
2022-08-24T04:37:38.639Z,15.20
2022-08-24T04:40:08.054Z,15.20
2022-08-24T04:42:34.898Z,15.20
2022-08-24T04:45:01.523Z,15.20
2022-08-24T04:47:28.261Z,15.20
2022-08-24T04:49:55.102Z,15.30
2022-08-24T04:52:21.752Z,15.30
2022-08-24T04:54:48.390Z,15.30
2022-08-24T04:57:18.113Z,15.30
2022-08-24T04:59:45.441Z,15.40
2022-08-24T05:02:12.305Z,15.30
2022-08-24T05:04:38.966Z,15.30
2022-08-24T05:07:05.879Z,15.30
2022-08-24T05:09:32.556Z,15.40
2022-08-24T05:11:59.221Z,15.40
2022-08-24T05:14:29.046Z,15.50
2022-08-24T05:16:56.258Z,15.50
2022-08-24T05:19:23.758Z,15.60
2022-08-24T05:21:50.783Z,15.70
2022-08-24T05:24:18.288Z,15.70
2022-08-24T05:26:45.506Z,15.90
2022-08-24T05:29:12.472Z,16.00
2022-08-24T05:31:42.618Z,16.20
2022-08-24T05:34:09.543Z,16.50
2022-08-24T05:36:40.977Z,16.70
2022-08-24T05:39:11.442Z,16.90
2022-08-24T05:41:44.319Z,17.20
2022-08-24T05:44:11.977Z,17.40
2022-08-24T05:46:38.620Z,17.70
2022-08-24T05:49:05.403Z,17.90
2022-08-24T05:51:32.116Z,18.10
2022-08-24T05:53:59.332Z,18.30
2022-08-24T05:56:31.318Z,18.60
2022-08-24T05:58:58.635Z,18.90
2022-08-24T06:01:26.065Z,19.00
2022-08-24T06:03:53.445Z,19.30
2022-08-24T06:06:20.851Z,19.50
2022-08-24T06:08:48.844Z,19.60
2022-08-24T06:11:30.437Z,19.90
2022-08-24T06:13:59.216Z,20.20
2022-08-24T06:16:26.004Z,20.50
2022-08-24T06:18:53.611Z,20.70
2022-08-24T06:21:22.228Z,21.10
2022-08-24T06:23:49.299Z,21.20
2022-08-24T06:26:34.703Z,21.50
2022-08-24T06:29:02.825Z,21.80
2022-08-24T06:31:29.757Z,22.20
2022-08-24T06:34:06.271Z,22.30
2022-08-24T06:36:32.916Z,22.50
2022-08-24T06:38:59.716Z,22.80
2022-08-24T06:41:26.491Z,23.10
2022-08-24T06:43:53.310Z,23.50
2022-08-24T06:46:24.135Z,23.70
2022-08-24T06:48:53.185Z,24.10
2022-08-24T06:51:20.610Z,24.70
2022-08-24T06:53:47.668Z,25.20
2022-08-24T06:56:14.487Z,25.90
2022-08-24T06:58:42.934Z,26.60
2022-08-24T07:01:09.742Z,27.40
2022-08-24T07:03:36.362Z,27.90
2022-08-24T07:06:03.100Z,28.30
2022-08-24T07:08:29.695Z,28.70
2022-08-24T07:10:56.315Z,29.40
2022-08-24T07:13:22.929Z,29.90
2022-08-24T07:15:50.580Z,30.00
2022-08-24T07:18:18.104Z,30.00
2022-08-24T07:20:44.730Z,30.30
2022-08-24T07:23:14.412Z,30.70
2022-08-24T07:25:46.142Z,30.90
2022-08-24T07:28:15.735Z,31.00
2022-08-24T07:30:42.952Z,31.20
2022-08-24T07:33:09.661Z,31.40
2022-08-24T07:35:38.122Z,31.40
2022-08-24T07:38:06.101Z,31.80
2022-08-24T07:40:44.514Z,31.90
2022-08-24T07:43:21.087Z,32.50
2022-08-24T07:45:48.456Z,33.00
2022-08-24T07:48:15.461Z,33.10
2022-08-24T07:50:42.267Z,33.20
2022-08-24T07:53:13.871Z,33.30
2022-08-24T07:55:46.252Z,33.10
2022-08-24T07:58:13.008Z,32.60
2022-08-24T08:00:39.599Z,32.40
2022-08-24T08:03:06.418Z,32.10
2022-08-24T08:05:38.195Z,31.50
2022-08-24T08:08:04.851Z,31.00
2022-08-24T08:10:33.272Z,30.60
2022-08-24T08:12:59.867Z,30.10
2022-08-24T08:15:26.664Z,29.70
2022-08-24T08:17:55.937Z,29.30
2022-08-24T08:20:22.880Z,29.30
2022-08-24T08:23:08.073Z,29.10
2022-08-24T08:25:38.458Z,28.90
2022-08-24T08:28:18.522Z,28.80
2022-08-24T08:30:53.673Z,29.00
2022-08-24T08:33:20.659Z,28.90
2022-08-24T08:35:49.055Z,28.90
2022-08-24T08:38:15.691Z,28.90
2022-08-24T08:40:42.468Z,29.00
2022-08-24T08:43:11.905Z,28.90
2022-08-24T08:46:01.700Z,29.10
2022-08-24T08:48:47.553Z,29.00
2022-08-24T08:51:36.660Z,28.90
2022-08-24T08:54:03.318Z,29.30
2022-08-24T08:56:42.249Z,29.30
2022-08-24T08:59:27.592Z,29.10
2022-08-24T09:01:54.193Z,29.40
2022-08-24T09:04:33.016Z,29.60
2022-08-24T09:07:05.566Z,29.60
2022-08-24T09:09:50.944Z,29.30
2022-08-24T09:12:36.308Z,29.00
2022-08-24T09:15:07.886Z,28.80
2022-08-24T09:17:34.819Z,28.90
2022-08-24T09:20:13.612Z,29.30
2022-08-24T09:22:47.231Z,29.70
2022-08-24T09:25:36.905Z,29.90
2022-08-24T09:28:12.252Z,30.10
2022-08-24T09:30:56.209Z,30.00
2022-08-24T09:33:27.416Z,30.10
2022-08-24T09:35:53.991Z,29.90
2022-08-24T09:38:29.798Z,29.80
2022-08-24T09:41:00.259Z,29.90
2022-08-24T09:43:45.830Z,30.10
2022-08-24T09:46:30.893Z,29.80
2022-08-24T09:49:03.640Z,30.10
2022-08-24T09:51:56.657Z,30.20
2022-08-24T09:54:36.760Z,29.90
2022-08-24T09:57:21.729Z,30.40
2022-08-24T10:00:12.290Z,30.20
2022-08-24T10:02:38.925Z,29.80
2022-08-24T10:05:13.361Z,29.80
2022-08-24T10:07:40.005Z,30.00
2022-08-24T10:10:25.673Z,30.10
2022-08-24T10:13:14.162Z,29.90
2022-08-24T10:15:54.832Z,30.20
2022-08-24T10:18:27.454Z,30.50
2022-08-24T10:21:03.019Z,30.80
2022-08-24T10:23:48.385Z,30.80
2022-08-24T10:26:33.855Z,30.80
2022-08-24T10:29:07.084Z,31.30
2022-08-24T10:31:40.344Z,31.70
2022-08-24T10:34:26.930Z,31.80
2022-08-24T10:37:01.932Z,31.50
2022-08-24T10:39:43.749Z,31.20
2022-08-24T10:42:43.952Z,30.90
2022-08-24T10:45:29.289Z,30.70
2022-08-24T10:48:14.239Z,30.40
2022-08-24T10:50:50.423Z,30.30
2022-08-24T10:53:22.672Z,30.50
2022-08-24T10:55:56.027Z,30.80
2022-08-24T10:58:34.862Z,31.00
2022-08-24T11:01:13.845Z,30.90
2022-08-24T11:03:51.408Z,31.20
2022-08-24T11:06:18.858Z,31.10
2022-08-24T11:08:53.157Z,31.50
2022-08-24T11:11:24.085Z,31.40
2022-08-24T11:13:52.582Z,31.40
2022-08-24T11:16:23.805Z,31.60
2022-08-24T11:18:54.804Z,30.90
2022-08-24T11:21:43.713Z,30.80
2022-08-24T11:24:19.275Z,31.00
2022-08-24T11:27:09.264Z,31.20
2022-08-24T11:29:51.384Z,31.50
2022-08-24T11:32:33.406Z,31.60
2022-08-24T11:35:18.992Z,31.90
2022-08-24T11:37:46.644Z,32.00
2022-08-24T11:40:14.244Z,32.20
2022-08-24T11:43:10.271Z,32.00
2022-08-24T11:45:42.546Z,32.00
2022-08-24T11:48:27.418Z,31.10
2022-08-24T11:50:56.351Z,30.70
2022-08-24T11:53:48.256Z,30.10
2022-08-24T11:56:31.424Z,30.00
2022-08-24T11:59:20.332Z,29.90
2022-08-24T12:01:51.329Z,29.80
2022-08-24T12:04:27.433Z,29.70
2022-08-24T12:07:13.456Z,30.00
2022-08-24T12:09:55.670Z,30.30
2022-08-24T12:12:27.570Z,30.40
2022-08-24T12:15:00.633Z,30.60
2022-08-24T12:17:47.523Z,30.40
2022-08-24T12:20:27.924Z,30.20
2022-08-24T12:22:57.775Z,30.00
2022-08-24T12:25:45.020Z,29.90
2022-08-24T12:28:14.651Z,29.70
2022-08-24T12:30:43.324Z,29.40
2022-08-24T12:33:12.352Z,29.20
2022-08-24T12:35:50.171Z,29.20
2022-08-24T12:38:16.798Z,29.50
2022-08-24T12:41:14.710Z,29.80
2022-08-24T12:43:55.673Z,29.80
2022-08-24T12:46:23.327Z,29.70
2022-08-24T12:48:59.998Z,29.70
2022-08-24T12:51:33.563Z,29.50
2022-08-24T12:54:19.097Z,29.40
2022-08-24T12:56:54.747Z,29.30
2022-08-24T12:59:26.543Z,29.10
2022-08-24T13:02:04.524Z,29.20
2022-08-24T13:04:34.157Z,29.40
2022-08-24T13:07:06.948Z,29.60
2022-08-24T13:09:35.664Z,29.70
2022-08-24T13:12:24.372Z,29.70
2022-08-24T13:14:56.872Z,29.50
2022-08-24T13:17:39.720Z,29.40
2022-08-24T13:20:20.173Z,29.00
2022-08-24T13:23:05.750Z,29.00
2022-08-24T13:25:47.715Z,29.00
2022-08-24T13:28:23.214Z,28.90
2022-08-24T13:31:02.197Z,28.90
2022-08-24T13:33:40.892Z,28.90
2022-08-24T13:36:10.560Z,28.90
2022-08-24T13:38:40.910Z,29.00
2022-08-24T13:41:08.909Z,29.10
2022-08-24T13:43:38.720Z,29.10
2022-08-24T13:46:14.305Z,29.20
2022-08-24T13:48:52.654Z,29.60
2022-08-24T13:51:29.851Z,29.90
2022-08-24T13:54:20.389Z,30.10
2022-08-24T13:56:49.150Z,30.00
2022-08-24T13:59:22.406Z,30.10
2022-08-24T14:02:09.477Z,29.90
2022-08-24T14:04:55.011Z,29.70
2022-08-24T14:07:24.015Z,29.90
2022-08-24T14:10:09.495Z,30.20
2022-08-24T14:12:46.716Z,30.50
2022-08-24T14:15:14.486Z,30.70
2022-08-24T14:17:59.776Z,30.80
2022-08-24T14:20:41.244Z,30.70
2022-08-24T14:23:51.602Z,30.40
2022-08-24T14:26:33.610Z,30.00
2022-08-24T14:29:15.447Z,29.80
2022-08-24T14:32:12.720Z,29.70
2022-08-24T14:34:58.534Z,29.40
2022-08-24T14:37:45.894Z,29.30
2022-08-24T14:40:22.870Z,29.10
2022-08-24T14:42:58.706Z,28.90
2022-08-24T14:45:38.864Z,28.80
2022-08-24T14:48:24.179Z,28.70
2022-08-24T14:50:59.859Z,28.70
2022-08-24T14:53:32.695Z,28.90
2022-08-24T14:56:07.755Z,29.00
2022-08-24T14:58:55.494Z,29.10
2022-08-24T15:01:48.579Z,29.10
2022-08-24T15:04:37.809Z,28.90
2022-08-24T15:07:23.699Z,28.90
2022-08-24T15:09:51.336Z,28.70
2022-08-24T15:12:37.098Z,28.60
2022-08-24T15:15:12.353Z,28.40
2022-08-24T15:17:49.118Z,28.40
2022-08-24T15:20:21.318Z,28.50
2022-08-24T15:23:00.899Z,28.70
2022-08-24T15:25:27.443Z,28.90
2022-08-24T15:28:00.171Z,28.90
2022-08-24T15:30:31.567Z,28.90
2022-08-24T15:33:05.445Z,29.10
2022-08-24T15:35:37.317Z,29.10
2022-08-24T15:38:19.286Z,29.20
2022-08-24T15:40:47.011Z,29.20
2022-08-24T15:43:13.840Z,29.20
2022-08-24T15:45:48.475Z,29.40
2022-08-24T15:48:16.925Z,29.30
2022-08-24T15:50:45.239Z,29.40
2022-08-24T15:53:30.821Z,29.20
2022-08-24T15:56:00.016Z,29.00
2022-08-24T15:58:37.151Z,28.90
2022-08-24T16:01:28.625Z,29.00
2022-08-24T16:03:59.488Z,28.90
2022-08-24T16:06:32.134Z,28.80
2022-08-24T16:09:01.472Z,28.90
2022-08-24T16:11:30.857Z,28.70
2022-08-24T16:13:57.682Z,28.60
2022-08-24T16:16:32.809Z,28.40
2022-08-24T16:19:02.134Z,28.40
2022-08-24T16:21:35.073Z,28.50
2022-08-24T16:24:03.795Z,28.60
2022-08-24T16:26:50.831Z,28.70
2022-08-24T16:29:36.368Z,28.70
2022-08-24T16:32:10.245Z,28.80
2022-08-24T16:34:52.306Z,28.70
2022-08-24T16:37:20.311Z,28.70
2022-08-24T16:39:47.727Z,28.60
2022-08-24T16:42:22.942Z,28.70
2022-08-24T16:44:50.051Z,28.50
2022-08-24T16:47:17.006Z,28.40
2022-08-24T16:49:44.624Z,28.40
2022-08-24T16:52:11.281Z,28.30
2022-08-24T16:54:37.864Z,28.20
2022-08-24T16:57:12.960Z,28.10
2022-08-24T16:59:40.976Z,28.00
2022-08-24T17:02:07.607Z,27.90
2022-08-24T17:04:35.939Z,27.90
2022-08-24T17:07:03.259Z,27.80
2022-08-24T17:09:29.908Z,27.70
2022-08-24T17:11:56.600Z,27.50
2022-08-24T17:14:23.347Z,27.10
2022-08-24T17:16:50.010Z,27.30
2022-08-24T17:19:17.997Z,27.20
2022-08-24T17:21:44.761Z,27.10
2022-08-24T17:24:11.831Z,26.80
2022-08-24T17:26:45.734Z,26.80
2022-08-24T17:29:16.927Z,26.60
2022-08-24T17:31:47.045Z,26.50
2022-08-24T17:34:13.889Z,26.50
2022-08-24T17:36:41.368Z,26.40
2022-08-24T17:39:09.998Z,26.30
2022-08-24T17:41:36.575Z,26.20
2022-08-24T17:44:03.337Z,26.20
2022-08-24T17:46:30.621Z,26.20
2022-08-24T17:48:57.726Z,26.00
2022-08-24T17:51:24.481Z,25.90
2022-08-24T17:53:51.068Z,25.90
2022-08-24T17:56:17.918Z,25.90
2022-08-24T17:59:03.509Z,25.80
2022-08-24T18:01:30.240Z,25.80
2022-08-24T18:03:56.933Z,25.80
2022-08-24T18:06:24.437Z,25.70
2022-08-24T18:08:51.342Z,25.70
2022-08-24T18:11:20.633Z,25.60
2022-08-24T18:13:49.329Z,25.60
2022-08-24T18:16:19.124Z,25.50
2022-08-24T18:18:52.463Z,25.50
2022-08-24T18:21:20.110Z,25.40
2022-08-24T18:23:50.370Z,25.40
2022-08-24T18:26:25.972Z,25.30
2022-08-24T18:28:56.991Z,25.30
2022-08-24T18:31:24.570Z,25.20
2022-08-24T18:33:51.245Z,25.20
2022-08-24T18:36:17.821Z,25.10
2022-08-24T18:38:44.457Z,25.00
2022-08-24T18:41:11.515Z,24.90
2022-08-24T18:43:38.244Z,24.80
2022-08-24T18:46:06.205Z,24.60
2022-08-24T18:48:32.869Z,24.60
2022-08-24T18:50:59.428Z,24.50
2022-08-24T18:53:27.184Z,24.40
2022-08-24T18:55:53.878Z,24.40
2022-08-24T18:58:20.805Z,24.30
2022-08-24T19:00:47.961Z,24.20
2022-08-24T19:03:18.980Z,24.10
2022-08-24T19:05:46.468Z,24.10
2022-08-24T19:08:13.182Z,24.00
2022-08-24T19:10:40.130Z,23.90
2022-08-24T19:13:09.143Z,23.80
2022-08-24T19:15:39.454Z,23.70
2022-08-24T19:18:08.366Z,23.70
2022-08-24T19:20:35.553Z,23.60
2022-08-24T19:23:07.220Z,23.50
2022-08-24T19:25:35.184Z,23.40
2022-08-24T19:28:01.882Z,23.40
2022-08-24T19:30:28.561Z,23.30
2022-08-24T19:32:55.913Z,23.20
2022-08-24T19:35:22.677Z,23.20
2022-08-24T19:37:49.699Z,23.10
2022-08-24T19:40:17.226Z,23.00
2022-08-24T19:42:44.295Z,22.90
2022-08-24T19:45:31.283Z,22.90
2022-08-24T19:47:57.888Z,22.90
2022-08-24T19:50:28.279Z,22.80
2022-08-24T19:52:57.514Z,22.70
2022-08-24T19:55:24.170Z,22.70
2022-08-24T19:57:54.167Z,22.50
2022-08-24T20:00:24.221Z,22.60
2022-08-24T20:02:51.817Z,22.50
2022-08-24T20:05:19.217Z,22.40
2022-08-24T20:07:46.446Z,22.40
2022-08-24T20:10:13.815Z,22.30
2022-08-24T20:12:40.948Z,22.20
2022-08-24T20:15:08.037Z,22.10
2022-08-24T20:17:35.100Z,22.10
2022-08-24T20:20:02.350Z,22.00
2022-08-24T20:22:29.531Z,22.00
2022-08-24T20:24:56.143Z,21.90
2022-08-24T20:27:25.032Z,21.80
2022-08-24T20:29:52.223Z,21.70
2022-08-24T20:32:19.199Z,21.70
2022-08-24T20:34:45.930Z,21.70
2022-08-24T20:37:22.346Z,21.70
2022-08-24T20:39:49.279Z,21.60
2022-08-24T20:42:21.383Z,21.50
2022-08-24T20:44:48.299Z,21.50
2022-08-24T20:47:15.905Z,21.50
2022-08-24T20:49:42.733Z,21.40
2022-08-24T20:52:09.379Z,21.40
2022-08-24T20:54:39.518Z,21.30
2022-08-24T20:57:11.355Z,21.50
2022-08-24T20:59:37.941Z,21.30
2022-08-24T21:02:04.742Z,21.20
2022-08-24T21:04:31.459Z,21.20
2022-08-24T21:06:58.115Z,21.10
2022-08-24T21:09:24.735Z,21.10
2022-08-24T21:11:51.526Z,21.10
2022-08-24T21:14:18.135Z,21.00
2022-08-24T21:16:44.896Z,21.00
2022-08-24T21:19:12.666Z,20.90
2022-08-24T21:21:42.322Z,20.90
2022-08-24T21:24:09.635Z,20.90
2022-08-24T21:26:36.407Z,20.80
2022-08-24T21:29:04.159Z,20.80
2022-08-24T21:31:31.079Z,20.70
2022-08-24T21:34:16.536Z,20.80
2022-08-24T21:36:43.356Z,20.70
2022-08-24T21:39:11.137Z,20.60
2022-08-24T21:41:38.558Z,20.60
2022-08-24T21:44:05.335Z,20.60
2022-08-24T21:46:36.742Z,20.60
2022-08-24T21:49:03.847Z,20.50
2022-08-24T21:51:30.599Z,20.40
2022-08-24T21:53:59.580Z,20.50
2022-08-24T21:56:28.056Z,20.40
2022-08-24T21:58:54.853Z,20.40
2022-08-24T22:01:21.645Z,20.50
2022-08-24T22:03:48.452Z,20.50
2022-08-24T22:06:15.108Z,20.40
2022-08-24T22:08:42.835Z,20.40
2022-08-24T22:11:11.327Z,20.40
2022-08-24T22:13:38.477Z,20.40
2022-08-24T22:16:06.282Z,20.30
2022-08-24T22:18:33.979Z,20.30
2022-08-24T22:21:00.837Z,20.30
2022-08-24T22:23:27.433Z,20.30
2022-08-24T22:25:54.395Z,20.20
2022-08-24T22:28:21.019Z,20.10
2022-08-24T22:30:48.796Z,20.10
2022-08-24T22:33:16.046Z,20.00
2022-08-24T22:35:45.063Z,20.00
2022-08-24T22:38:11.990Z,19.90
2022-08-24T22:40:38.594Z,19.90
2022-08-24T22:43:05.714Z,19.90
2022-08-24T22:45:32.435Z,19.90
2022-08-24T22:47:59.053Z,19.80
2022-08-24T22:50:25.715Z,19.80
2022-08-24T22:52:53.201Z,19.70
2022-08-24T22:55:19.878Z,19.70
2022-08-24T22:57:51.217Z,19.70
2022-08-24T23:00:18.424Z,19.60
2022-08-24T23:02:45.000Z,19.60
2022-08-24T23:05:11.677Z,19.50
2022-08-24T23:07:38.237Z,19.30
2022-08-24T23:10:05.653Z,19.40
2022-08-24T23:12:32.951Z,19.40
2022-08-24T23:14:59.857Z,19.40
2022-08-24T23:17:26.551Z,19.40
2022-08-24T23:20:05.342Z,19.40
2022-08-24T23:22:41.447Z,19.30
2022-08-24T23:25:12.818Z,19.30
2022-08-24T23:27:39.647Z,19.20
2022-08-24T23:30:11.408Z,19.20
2022-08-24T23:32:38.861Z,19.20
2022-08-24T23:35:05.902Z,19.20
2022-08-24T23:37:32.480Z,19.10
2022-08-24T23:39:59.261Z,19.00
2022-08-24T23:42:25.919Z,19.00
2022-08-24T23:44:52.705Z,19.00
2022-08-24T23:47:20.217Z,19.00
2022-08-24T23:49:46.808Z,18.90
2022-08-24T23:52:26.340Z,18.90
2022-08-24T23:54:54.981Z,18.90
2022-08-24T23:57:22.350Z,18.90
2022-08-24T23:59:49.123Z,18.80
